createdAt,value
2018-08-11T08:56:32.569Z,20.30
2018-08-11T08:59:02.390Z,20.30
2018-08-11T09:01:32.673Z,20.30
2018-08-11T09:04:02.555Z,20.30
2018-08-11T09:06:35.127Z,20.30
2018-08-11T09:09:08.833Z,20.30
2018-08-11T09:11:39.667Z,20.30
2018-08-11T09:14:09.319Z,20.40
2018-08-11T09:16:39.331Z,20.40
2018-08-11T09:19:10.697Z,20.50
2018-08-11T09:21:40.633Z,20.50
2018-08-11T09:24:11.531Z,20.60
2018-08-11T09:26:41.283Z,20.70
2018-08-11T09:29:13.309Z,20.80
2018-08-11T09:31:43.047Z,20.80
2018-08-11T09:34:12.687Z,20.90
2018-08-11T09:36:42.565Z,21.00
2018-08-11T09:39:13.279Z,21.10
2018-08-11T09:41:44.358Z,21.10
2018-08-11T09:44:13.993Z,21.30
2018-08-11T09:46:43.939Z,21.50
2018-08-11T09:49:14.382Z,21.60
2018-08-11T09:54:43.694Z,22.00
2018-08-11T09:57:13.330Z,22.10
2018-08-11T09:59:43.746Z,22.30
2018-08-11T10:02:19.427Z,22.40
2018-08-11T10:04:49.650Z,22.60
2018-08-11T10:07:19.378Z,22.70
2018-08-11T10:09:50.737Z,22.80
2018-08-11T10:12:21.614Z,23.00
2018-08-11T10:14:52.904Z,23.10
2018-08-11T10:17:24.657Z,23.30
2018-08-11T10:19:55.684Z,23.40
2018-08-11T10:22:27.875Z,23.60
2018-08-11T10:24:58.085Z,23.70
2018-08-11T10:27:32.534Z,23.90
2018-08-11T10:30:03.283Z,24.10
2018-08-11T10:32:36.934Z,24.40
2018-08-11T10:35:07.327Z,24.60
2018-08-11T10:37:38.342Z,24.80
2018-08-11T10:40:10.086Z,25.00
2018-08-11T10:42:41.050Z,25.30
2018-08-11T10:45:10.743Z,25.40
2018-08-11T10:47:42.568Z,25.50
2018-08-11T10:50:13.452Z,25.50
2018-08-11T10:52:44.220Z,25.60
2018-08-11T10:55:14.593Z,25.80
2018-08-11T10:57:44.161Z,26.00
2018-08-11T11:00:13.887Z,26.10
2018-08-11T11:02:43.945Z,26.10
2018-08-11T11:05:13.447Z,26.10
2018-08-11T11:07:43.181Z,26.10
2018-08-11T11:10:12.596Z,26.10
2018-08-11T11:12:42.686Z,26.00
2018-08-11T11:15:12.095Z,26.10
2018-08-11T11:17:41.666Z,26.30
2018-08-11T11:20:12.638Z,26.50
2018-08-11T11:22:42.842Z,26.60
2018-08-11T11:25:12.283Z,26.80
2018-08-11T11:27:42.330Z,27.00
2018-08-11T11:30:11.834Z,27.10
2018-08-11T11:32:41.466Z,27.20
2018-08-11T11:35:11.520Z,27.30
2018-08-11T11:37:41.238Z,27.30
2018-08-11T11:40:10.737Z,27.30
2018-08-11T11:42:40.152Z,27.40
2018-08-11T11:45:09.656Z,27.40
2018-08-11T11:47:39.616Z,27.40
2018-08-11T11:50:09.133Z,27.40
2018-08-11T11:52:38.702Z,27.50
2018-08-11T11:55:08.296Z,27.50
2018-08-11T11:57:37.840Z,27.50
2018-08-11T12:00:07.385Z,27.70
2018-08-11T12:02:38.101Z,27.80
2018-08-11T12:05:07.625Z,27.80
2018-08-11T12:07:37.076Z,27.90
2018-08-11T12:10:06.597Z,28.00
2018-08-11T12:12:36.112Z,28.10
2018-08-11T12:15:06.329Z,28.10
2018-08-11T12:17:35.723Z,28.10
2018-08-11T12:20:05.556Z,28.10
2018-08-11T12:22:35.003Z,28.10
2018-08-11T12:25:04.637Z,28.20
2018-08-11T12:27:34.120Z,28.20
2018-08-11T12:30:03.699Z,28.20
2018-08-11T12:32:33.127Z,28.20
2018-08-11T12:35:02.577Z,28.30
2018-08-11T12:37:32.151Z,28.30
2018-08-11T12:40:02.907Z,28.40
2018-08-11T12:42:32.382Z,28.50
2018-08-11T12:45:02.843Z,28.60
2018-08-11T12:47:33.467Z,28.60
2018-08-11T12:50:03.494Z,28.70
2018-08-11T12:52:33.144Z,28.80
2018-08-11T12:55:02.675Z,28.80
2018-08-11T12:57:32.670Z,28.90
2018-08-11T13:00:02.251Z,29.10
2018-08-11T13:02:31.902Z,29.20
2018-08-11T13:05:01.965Z,29.40
2018-08-11T13:07:31.409Z,29.70
2018-08-11T13:10:00.833Z,30.00
2018-08-11T13:12:30.863Z,30.40
2018-08-11T13:15:00.838Z,30.70
2018-08-11T13:17:31.213Z,31.00
2018-08-11T13:20:00.609Z,31.20
2018-08-11T13:22:31.473Z,31.40
2018-08-11T13:25:00.941Z,31.60
2018-08-11T13:27:31.845Z,31.80
2018-08-11T13:30:02.055Z,31.90
2018-08-11T13:32:34.053Z,31.90
2018-08-11T13:35:04.731Z,31.90
2018-08-11T13:37:34.591Z,32.00
2018-08-11T13:40:05.068Z,32.10
2018-08-11T13:42:34.535Z,32.20
2018-08-11T13:45:04.161Z,32.20
2018-08-11T13:47:35.945Z,32.20
2018-08-11T13:50:08.605Z,32.40
2018-08-11T13:52:38.837Z,32.60
2018-08-11T13:55:08.922Z,32.70
2018-08-11T13:57:38.555Z,32.90
2018-08-11T14:00:10.067Z,32.90
2018-08-11T14:02:41.688Z,33.00
2018-08-11T14:05:12.138Z,33.00
2018-08-11T14:07:52.920Z,33.10
2018-08-11T14:10:24.070Z,33.20
2018-08-11T14:12:54.186Z,33.40
2018-08-11T14:15:23.637Z,33.70
2018-08-11T14:17:55.552Z,33.90
2018-08-11T14:20:24.968Z,34.20
2018-08-11T14:22:54.410Z,34.20
2018-08-11T14:25:23.958Z,34.20
2018-08-11T14:27:53.463Z,34.00
2018-08-11T14:30:23.338Z,33.70
2018-08-11T14:32:52.795Z,33.60
2018-08-11T14:35:24.409Z,33.60
2018-08-11T14:37:55.357Z,33.80
2018-08-11T14:40:25.376Z,34.00
2018-08-11T14:43:01.523Z,34.20
2018-08-11T14:45:32.147Z,34.40
2018-08-11T14:48:01.646Z,34.50
2018-08-11T14:50:31.140Z,34.60
2018-08-11T14:53:01.436Z,34.70
2018-08-11T14:55:30.925Z,34.70
2018-08-11T14:58:00.589Z,34.60
2018-08-11T15:00:30.074Z,34.50
2018-08-11T15:03:00.116Z,34.50
2018-08-11T15:05:30.143Z,34.60
2018-08-11T15:07:59.693Z,34.80
2018-08-11T15:10:30.774Z,34.90
2018-08-11T15:13:00.409Z,34.70
2018-08-11T15:15:29.959Z,34.70
2018-08-11T15:17:59.571Z,34.80
2018-08-11T15:20:29.232Z,34.80
2018-08-11T15:22:58.577Z,34.50
2018-08-11T15:25:28.088Z,34.20
2018-08-11T15:27:57.646Z,33.90
2018-08-11T15:30:29.160Z,33.70
2018-08-11T15:32:59.442Z,33.80
2018-08-11T15:35:28.938Z,34.10
2018-08-11T15:37:58.359Z,34.50
2018-08-11T15:40:28.342Z,35.10
2018-08-11T15:42:58.445Z,35.80
2018-08-11T15:45:28.692Z,36.50
2018-08-11T15:47:58.786Z,37.10
2018-08-11T15:50:28.268Z,37.70
2018-08-11T15:52:57.676Z,38.10
2018-08-11T15:55:27.789Z,38.60
2018-08-11T15:57:57.093Z,38.90
2018-08-11T16:00:26.629Z,39.00
2018-08-11T16:02:57.310Z,38.90
2018-08-11T16:05:26.679Z,39.00
2018-08-11T16:07:56.199Z,39.20
2018-08-11T16:10:26.432Z,39.20
2018-08-11T16:12:56.242Z,38.70
2018-08-11T16:15:26.450Z,37.90
2018-08-11T16:17:56.149Z,36.90
2018-08-11T16:20:25.580Z,36.00
2018-08-11T16:22:55.423Z,35.40
2018-08-11T16:25:25.012Z,35.20
2018-08-11T16:27:56.101Z,35.30
2018-08-11T16:30:27.613Z,35.30
2018-08-11T16:32:57.168Z,35.30
2018-08-11T16:35:26.570Z,35.20
2018-08-11T16:37:55.950Z,34.70
2018-08-11T16:40:26.146Z,34.20
2018-08-11T16:42:55.541Z,33.80
2018-08-11T16:45:25.042Z,33.50
2018-08-11T16:47:54.476Z,33.30
2018-08-11T16:50:23.814Z,33.00
2018-08-11T16:52:53.318Z,32.80
2018-08-11T16:55:22.744Z,32.60
2018-08-11T16:57:52.378Z,32.40
2018-08-11T17:00:21.850Z,32.10
2018-08-11T17:02:51.146Z,31.70
2018-08-11T17:05:20.626Z,31.30
2018-08-11T17:07:50.172Z,30.80
2018-08-11T17:10:21.356Z,30.30
2018-08-11T17:12:51.410Z,29.90
2018-08-11T17:15:21.087Z,29.50
2018-08-11T17:17:50.664Z,29.20
2018-08-11T17:20:23.568Z,28.80
2018-08-11T17:22:52.963Z,28.50
2018-08-11T17:25:24.746Z,28.20
2018-08-11T17:27:54.206Z,27.90
2018-08-11T17:30:23.577Z,27.60
2018-08-11T17:32:53.318Z,27.40
2018-08-11T17:35:22.729Z,27.10
2018-08-11T17:37:52.125Z,26.80
2018-08-11T17:40:26.253Z,26.60
2018-08-11T17:42:56.940Z,26.30
2018-08-11T17:45:27.045Z,26.00
2018-08-11T17:47:56.621Z,25.80
2018-08-11T17:50:28.225Z,25.50
2018-08-11T17:52:57.787Z,25.30
2018-08-11T17:55:27.878Z,25.10
2018-08-11T17:57:58.139Z,24.90
2018-08-11T18:00:28.589Z,24.80
2018-08-11T18:02:58.206Z,24.70
2018-08-11T18:05:31.230Z,24.50
2018-08-11T18:08:00.855Z,24.40
2018-08-11T18:10:30.522Z,24.20
2018-08-11T18:13:00.169Z,24.10
2018-08-11T18:15:31.011Z,24.00
2018-08-11T18:18:01.470Z,23.80
2018-08-11T18:20:31.129Z,23.70
2018-08-11T18:23:00.979Z,23.50
2018-08-11T18:25:30.506Z,23.30
2018-08-11T18:28:01.110Z,23.20
2018-08-11T18:30:30.640Z,23.00
2018-08-11T18:33:02.865Z,22.80
2018-08-11T18:35:32.292Z,22.60
2018-08-11T18:38:04.112Z,22.30
2018-08-11T18:40:33.643Z,22.10
2018-08-11T18:43:04.250Z,21.90
2018-08-11T18:45:36.732Z,21.70
2018-08-11T18:48:06.589Z,21.50
2018-08-11T18:50:36.425Z,21.30
2018-08-11T18:53:06.131Z,21.10
2018-08-11T18:55:35.845Z,20.90
2018-08-11T18:58:05.667Z,20.70
2018-08-11T19:00:37.117Z,20.50
2018-08-11T19:03:08.075Z,20.30
2018-08-11T19:05:37.703Z,20.10
2018-08-11T19:08:11.829Z,20.00
2018-08-11T19:10:41.223Z,19.80
2018-08-11T19:13:11.536Z,19.70
2018-08-11T19:15:41.053Z,19.50
2018-08-11T19:18:11.507Z,19.40
2018-08-11T19:20:41.008Z,19.20
2018-08-11T19:23:11.047Z,19.10
2018-08-11T19:25:40.842Z,19.00
2018-08-11T19:28:11.117Z,18.90
2018-08-11T19:30:40.570Z,18.80
2018-08-11T19:33:10.199Z,18.70
2018-08-11T19:35:39.926Z,18.60
2018-08-11T19:38:09.809Z,18.40
2018-08-11T19:40:40.807Z,18.30
2018-08-11T19:43:12.534Z,18.20
2018-08-11T19:45:42.836Z,18.10
2018-08-11T19:48:12.724Z,18.10
2018-08-11T19:50:42.260Z,18.00
2018-08-11T19:53:11.830Z,17.90
2018-08-11T19:55:41.338Z,17.80
2018-08-11T19:58:10.878Z,17.70
2018-08-11T20:00:40.916Z,17.60
2018-08-11T20:03:12.244Z,17.50
2018-08-11T20:05:42.184Z,17.40
2018-08-11T20:10:52.981Z,17.20
2018-08-11T20:13:23.632Z,17.10
2018-08-11T20:15:54.827Z,17.10
2018-08-11T20:18:24.989Z,17.00
2018-08-11T20:20:54.986Z,16.90
2018-08-11T20:23:25.940Z,16.80
2018-08-11T20:28:53.248Z,16.70
2018-08-11T20:31:23.026Z,16.60
2018-08-11T20:33:52.597Z,16.60
2018-08-11T20:36:22.224Z,16.50
2018-08-11T20:38:51.922Z,16.40
2018-08-11T20:41:21.827Z,16.40
2018-08-11T20:43:51.614Z,16.30
2018-08-11T20:46:23.500Z,16.30
2018-08-11T20:48:53.736Z,16.20
2018-08-11T20:51:23.799Z,16.20
2018-08-11T20:53:53.963Z,16.10
2018-08-11T20:56:23.762Z,16.10
2018-08-11T20:58:53.598Z,16.10
2018-08-11T21:01:24.566Z,16.00
2018-08-11T21:03:54.615Z,16.00
2018-08-11T21:06:25.258Z,16.00
2018-08-11T21:08:54.885Z,16.00
2018-08-11T21:11:24.655Z,15.90
2018-08-11T21:13:54.664Z,15.90
2018-08-11T21:16:25.296Z,15.90
2018-08-11T21:18:55.336Z,15.80
2018-08-11T21:21:25.062Z,15.80
2018-08-11T21:23:56.056Z,15.70
2018-08-11T21:26:26.026Z,15.70
2018-08-11T21:28:55.674Z,15.70
2018-08-11T21:31:25.460Z,15.60
2018-08-11T21:33:55.333Z,15.60
2018-08-11T21:36:25.183Z,15.60
2018-08-11T21:38:55.242Z,15.60
2018-08-11T21:41:24.961Z,15.60
2018-08-11T21:43:55.905Z,15.50
2018-08-11T21:46:25.461Z,15.50
2018-08-11T21:48:55.009Z,15.50
2018-08-11T21:51:24.753Z,15.50
2018-08-11T21:53:54.651Z,15.50
2018-08-11T21:56:24.922Z,15.50
2018-08-11T21:58:54.757Z,15.50
2018-08-11T22:01:24.485Z,15.50
2018-08-11T22:03:55.441Z,15.50
2018-08-11T22:06:25.815Z,15.40
2018-08-11T22:08:55.862Z,15.30
2018-08-11T22:11:25.502Z,15.30
2018-08-11T22:13:55.271Z,15.20
2018-08-11T22:16:25.497Z,15.20
2018-08-11T22:18:55.436Z,15.10
2018-08-11T22:21:25.162Z,15.10
2018-08-11T22:23:55.149Z,15.00
2018-08-11T22:26:25.446Z,15.00
2018-08-11T22:28:55.611Z,14.90
2018-08-11T22:31:25.274Z,14.90
2018-08-11T22:33:55.040Z,14.90
2018-08-11T22:36:24.868Z,14.80
2018-08-11T22:38:54.330Z,14.80
2018-08-11T22:41:23.941Z,14.70
2018-08-11T22:43:55.237Z,14.70
2018-08-11T22:46:24.884Z,14.60
2018-08-11T22:48:54.432Z,14.60
2018-08-11T22:51:24.043Z,14.60
2018-08-11T22:53:54.329Z,14.50
2018-08-11T22:56:24.083Z,14.50
2018-08-11T22:58:54.644Z,14.50
2018-08-11T23:01:24.901Z,14.50
2018-08-11T23:03:54.787Z,14.50
2018-08-11T23:06:24.445Z,14.50
2018-08-11T23:08:54.389Z,14.50
2018-08-11T23:11:23.979Z,14.40
2018-08-11T23:13:53.550Z,14.40
2018-08-11T23:16:23.668Z,14.40
2018-08-11T23:19:04.832Z,14.30
2018-08-11T23:21:34.715Z,14.30
2018-08-11T23:24:04.192Z,14.30
2018-08-11T23:26:33.933Z,14.20
2018-08-11T23:29:03.694Z,14.20
2018-08-11T23:31:33.319Z,14.20
2018-08-11T23:34:03.549Z,14.10
2018-08-11T23:36:33.079Z,14.10
2018-08-11T23:39:02.912Z,14.10
2018-08-11T23:41:32.470Z,14.00
2018-08-11T23:44:02.068Z,14.00
2018-08-11T23:46:32.044Z,14.00
2018-08-11T23:49:01.750Z,13.90
2018-08-11T23:51:31.298Z,13.90
2018-08-11T23:54:01.159Z,13.80
2018-08-11T23:56:30.682Z,13.80
2018-08-11T23:59:00.514Z,13.80
